Time;durP1;ratioP1;P1;durP2;ratioP2;P2;SDS_P1;SDS_P2;PMS_P1;PMS_P2;Temp;Humidity;BMP_temperature;BMP_pressure;BME280_temperature;BME280_humidity;BME280_pressure;Samples;Min_cycle;Max_cycle;Signal;HPM_P1;HPM_P2
2023/09/16 00:01:45;;;;;;;7.20;5.57;;;;;;;15.30;100.00;96315.97;5089825;27;106112;-77
2023/09/16 00:04:11;;;;;;;6.13;5.63;;;;;;;15.37;100.00;96327.19;5090358;27;101948;-77
2023/09/16 00:06:38;;;;;;;7.00;6.47;;;;;;;15.28;100.00;96318.13;5090241;27;105103;-77
2023/09/16 00:09:05;;;;;;;7.10;6.40;;;;;;;15.43;100.00;96318.03;5089524;27;105685;-77
2023/09/16 00:11:33;;;;;;;7.70;7.03;;;;;;;15.25;100.00;96321.34;5090371;27;101906;-77
2023/09/16 00:14:02;;;;;;;7.67;6.97;;;;;;;15.18;100.00;96308.31;5090203;27;105360;-77
2023/09/16 00:16:29;;;;;;;6.43;5.93;;;;;;;15.27;100.00;96319.22;5093195;27;105646;-77
2023/09/16 00:18:57;;;;;;;6.90;6.20;;;;;;;15.12;100.00;96312.09;5090169;27;105563;-77
2023/09/16 00:21:24;;;;;;;6.80;6.20;;;;;;;15.04;100.00;96311.91;5089562;27;105107;-74
2023/09/16 00:23:52;;;;;;;7.30;6.53;;;;;;;15.23;100.00;96318.16;5089614;27;101962;-74
2023/09/16 00:26:19;;;;;;;6.90;6.37;;;;;;;15.25;100.00;96318.69;5089927;27;104750;-74
2023/09/16 00:28:50;;;;;;;7.10;6.40;;;;;;;15.36;100.00;96318.34;5089295;27;102815;-74
2023/09/16 00:31:17;;;;;;;7.40;6.70;;;;;;;15.41;100.00;96321.00;5090062;27;101952;-74
2023/09/16 00:33:44;;;;;;;7.70;7.00;;;;;;;15.52;100.00;96313.63;5089957;27;104858;-74
2023/09/16 00:36:11;;;;;;;7.80;7.00;;;;;;;15.40;100.00;96311.34;5089036;27;105476;-74
2023/09/16 00:38:38;;;;;;;7.33;6.63;;;;;;;15.24;100.00;96311.72;5094556;27;102265;-75
2023/09/16 00:41:05;;;;;;;7.97;6.90;;;;;;;15.18;100.00;96304.81;5088834;27;105649;-75
2023/09/16 00:43:32;;;;;;;7.77;6.97;;;;;;;15.21;100.00;96305.03;5089759;27;102103;-75
2023/09/16 00:46:00;;;;;;;8.10;7.40;;;;;;;14.97;100.00;96300.69;5091146;27;102113;-75
2023/09/16 00:48:27;;;;;;;7.00;6.40;;;;;;;14.94;100.00;96298.59;5089196;27;105384;-75
2023/09/16 00:50:55;;;;;;;6.47;5.83;;;;;;;15.19;100.00;96298.38;5089722;27;101941;-75
2023/09/16 00:53:23;;;;;;;7.67;6.70;;;;;;;14.88;100.00;96299.72;5089629;27;105374;-74
2023/09/16 00:55:50;;;;;;;8.87;7.03;;;;;;;15.19;100.00;96306.41;5089000;27;104205;-74
2023/09/16 00:58:18;;;;;;;7.10;6.40;;;;;;;14.94;100.00;96298.59;5089861;27;101905;-74
2023/09/16 01:00:47;;;;;;;7.43;6.73;;;;;;;15.06;100.00;96304.38;5092462;27;105305;-74
2023/09/16 01:03:16;;;;;;;6.53;5.90;;;;;;;15.22;100.00;96295.97;5089597;27;102076;-74
2023/09/16 01:05:46;;;;;;;8.07;6.23;;;;;;;15.17;100.00;96303.22;5089354;27;103799;-74
2023/09/16 01:08:13;;;;;;;7.60;6.90;;;;;;;15.09;100.00;96309.19;5088534;27;105770;-74
2023/09/16 01:10:41;;;;;;;7.27;6.57;;;;;;;14.97;100.00;96308.72;5089496;27;102014;-74
2023/09/16 01:13:09;;;;;;;8.10;6.77;;;;;;;15.04;100.00;96311.91;5089289;27;105005;-74
2023/09/16 01:15:40;;;;;;;6.93;6.37;;;;;;;15.10;100.00;96310.78;5089024;27;105414;-77
2023/09/16 01:18:13;;;;;;;6.83;6.13;;;;;;;14.99;100.00;96311.94;5089611;27;102021;-75
2023/09/16 01:20:41;;;;;;;6.13;5.63;;;;;;;14.95;100.00;96311.72;5089775;27;104954;-75
2023/09/16 01:23:09;;;;;;;7.17;6.50;;;;;;;14.81;100.00;96310.72;5092100;27;101972;-75
2023/09/16 01:25:38;;;;;;;6.73;6.23;;;;;;;14.72;100.00;96312.38;5089254;27;104262;-75
2023/09/16 01:28:05;;;;;;;7.17;6.47;;;;;;;14.77;100.00;96311.56;5088815;27;105497;-75
2023/09/16 01:30:36;;;;;;;8.13;6.57;;;;;;;14.64;100.00;96304.97;5089252;27;102226;-75
2023/09/16 01:33:11;;;;;;;6.33;5.60;;;;;;;14.62;100.00;96307.13;5089397;27;105802;-75
2023/09/16 01:35:40;;;;;;;6.47;5.87;;;;;;;14.46;100.00;96308.28;5088651;27;105483;-75
2023/09/16 01:38:09;;;;;;;6.73;6.13;;;;;;;14.48;100.00;96305.31;5089099;27;101888;-75
2023/09/16 01:40:38;;;;;;;7.23;6.53;;;;;;;14.64;100.00;96301.47;5088795;27;105910;-77
2023/09/16 01:43:07;;;;;;;6.33;5.83;;;;;;;14.52;100.00;96298.34;5091788;27;104158;-75
2023/09/16 01:45:44;;;;;;;6.67;6.10;;;;;;;14.64;100.00;96296.13;5089226;27;105252;-75
2023/09/16 01:48:11;;;;;;;8.40;6.57;;;;;;;14.70;100.00;96306.53;5088733;27;105694;-75
2023/09/16 01:50:38;;;;;;;7.20;6.60;;;;;;;14.91;100.00;96304.50;5092508;27;102091;-75
2023/09/16 01:53:07;;;;;;;7.67;6.97;;;;;;;15.04;100.00;96309.22;5092149;27;105190;-75
2023/09/16 01:55:34;;;;;;;6.50;6.00;;;;;;;14.89;100.00;96299.41;5091835;27;103972;-76
2023/09/16 01:58:02;;;;;;;7.23;6.63;;;;;;;15.03;100.00;96304.94;5092233;27;102018;-76
2023/09/16 02:00:29;;;;;;;7.83;7.00;;;;;;;14.77;100.00;96301.66;5092251;27;105313;-76
2023/09/16 02:02:59;;;;;;;6.97;6.33;;;;;;;14.80;100.00;96302.97;5091623;27;105848;-76
2023/09/16 02:05:26;;;;;;;6.07;5.57;;;;;;;14.66;100.00;96297.44;5095537;27;102435;-76
2023/09/16 02:07:54;;;;;;;6.70;6.10;;;;;;;14.81;100.00;96305.38;5091622;27;104163;-76
2023/09/16 02:10:20;;;;;;;6.30;5.80;;;;;;;14.63;100.00;96308.72;5092273;27;101864;-76
2023/09/16 02:12:47;;;;;;;6.93;6.43;;;;;;;14.40;100.00;96308.59;5092331;27;103951;-76
2023/09/16 02:15:16;;;;;;;6.63;6.03;;;;;;;14.53;100.00;96314.13;5091373;27;105665;-76
2023/09/16 02:17:43;;;;;;;6.50;6.00;;;;;;;14.49;100.00;96317.63;5092063;27;102388;-76
2023/09/16 02:20:11;;;;;;;6.60;6.00;;;;;;;14.52;100.00;96325.09;5091950;27;104886;-76
2023/09/16 02:22:38;;;;;;;7.23;6.53;;;;;;;14.74;100.00;96322.81;5091547;27;103171;-76
2023/09/16 02:25:06;;;;;;;7.10;6.43;;;;;;;14.80;100.00;96321.72;5091956;27;102293;-76
2023/09/16 02:27:34;;;;;;;6.97;6.37;;;;;;;14.74;100.00;96325.50;5094797;27;105182;-76
2023/09/16 02:30:01;;;;;;;6.53;5.93;;;;;;;14.80;100.00;96322.53;5091824;27;101874;-76
2023/09/16 02:32:30;;;;;;;6.00;5.50;;;;;;;14.82;100.00;96322.25;5091702;27;104717;-76
2023/09/16 02:34:57;;;;;;;6.53;5.93;;;;;;;14.72;100.00;96323.09;5090924;27;106003;-75
2023/09/16 02:37:24;;;;;;;6.10;5.50;;;;;;;14.70;100.00;96319.09;5091898;27;102174;-75
2023/09/16 02:39:52;;;;;;;7.73;6.93;;;;;;;14.51;100.00;96310.91;5091601;27;105381;-75
2023/09/16 02:42:19;;;;;;;8.50;6.90;;;;;;;14.67;100.00;96315.09;5090617;27;104258;-75
2023/09/16 02:44:46;;;;;;;8.17;7.37;;;;;;;14.39;100.00;96315.00;5091538;27;101872;-75
2023/09/16 02:47:13;;;;;;;8.43;7.53;;;;;;;14.67;100.00;96312.41;5092661;27;102676;-76
2023/09/16 02:49:41;;;;;;;9.53;7.77;;;;;;;14.57;100.00;96319.72;5094266;27;105502;-76
2023/09/16 02:52:08;;;;;;;10.17;8.63;;;;;;;14.69;100.00;96320.19;5091087;27;105177;-76
2023/09/16 02:54:36;;;;;;;9.20;8.30;;;;;;;14.62;100.00;96325.03;5090840;27;104953;-76
2023/09/16 02:57:03;;;;;;;11.93;9.13;;;;;;;14.45;100.00;96327.28;5091416;27;102336;-76
2023/09/16 02:59:40;;;;;;;10.43;9.47;;;;;;;14.47;100.00;96331.28;5091536;27;104826;-76
2023/09/16 03:02:12;;;;;;;11.43;10.40;;;;;;;14.47;100.00;96330.47;5090730;27;105211;-75
2023/09/16 03:04:41;;;;;;;12.33;11.00;;;;;;;14.55;100.00;96325.34;5090198;27;101860;-75
2023/09/16 03:07:11;;;;;;;11.20;10.13;;;;;;;14.51;100.00;96334.22;5091548;27;102828;-75
2023/09/16 03:09:38;;;;;;;13.87;11.57;;;;;;;14.58;100.00;96332.03;5089692;27;104826;-75
2023/09/16 03:12:07;;;;;;;13.30;11.90;;;;;;;14.44;100.00;96331.03;5093605;27;101934;-75
2023/09/16 03:14:34;;;;;;;13.07;11.67;;;;;;;14.52;100.00;96327.78;5089674;27;105408;-75
2023/09/16 03:17:01;;;;;;;13.20;11.80;;;;;;;14.38;100.00;96332.16;5090099;27;101863;-75
2023/09/16 03:19:32;;;;;;;13.70;11.63;;;;;;;14.63;100.00;96326.63;5090013;27;105384;-74
2023/09/16 03:22:00;;;;;;;13.80;12.50;;;;;;;14.89;100.00;96344.16;5089410;27;105442;-75
2023/09/16 03:24:27;;;;;;;17.20;13.10;;;;;;;14.84;100.00;96344.19;5089927;27;102251;-75
2023/09/16 03:26:54;;;;;;;17.37;12.77;;;;;;;14.67;100.00;96335.72;5089949;27;104205;-75
2023/09/16 03:29:21;;;;;;;12.93;11.73;;;;;;;14.71;100.00;96342.13;5089355;27;105389;-75
2023/09/16 03:31:48;;;;;;;12.87;11.67;;;;;;;14.66;100.00;96334.13;5093291;27;101984;-75
2023/09/16 03:34:20;;;;;;;13.03;11.63;;;;;;;14.63;100.00;96338.16;5089292;27;105590;-75
2023/09/16 03:36:47;;;;;;;13.00;11.87;;;;;;;14.61;100.00;96328.81;5072654;27;102023;-75
2023/09/16 03:39:15;;;;;;;13.03;11.73;;;;;;;14.67;100.00;96331.16;5089605;27;105328;-75
2023/09/16 03:41:45;;;;;;;13.07;11.70;;;;;;;14.67;100.00;96330.38;5088877;27;105227;-76
2023/09/16 03:44:15;;;;;;;12.00;10.90;;;;;;;14.80;100.00;96324.38;5089674;27;101934;-76
2023/09/16 03:46:42;;;;;;;11.90;10.80;;;;;;;14.71;100.00;96326.06;5089321;27;104181;-76
2023/09/16 03:49:12;;;;;;;11.60;10.53;;;;;;;14.67;100.00;96331.16;5089078;27;105659;-76
2023/09/16 03:51:40;;;;;;;11.20;10.17;;;;;;;14.67;100.00;96335.72;5089451;27;101910;-76
2023/09/16 03:54:11;;;;;;;12.30;11.20;;;;;;;14.74;100.00;96326.31;5092388;27;104974;-77
2023/09/16 03:56:43;;;;;;;12.13;11.03;;;;;;;14.84;100.00;96328.13;5089491;27;101926;-76
2023/09/16 03:59:13;;;;;;;11.63;10.50;;;;;;;14.85;100.00;96327.84;5089501;27;104871;-76
2023/09/16 04:01:41;;;;;;;12.10;10.97;;;;;;;14.86;100.00;96331.31;5088775;27;104927;-76
2023/09/16 04:04:08;;;;;;;13.20;11.90;;;;;;;14.76;100.00;96321.47;5089431;27;101925;-76
2023/09/16 04:06:35;;;;;;;14.20;12.87;;;;;;;14.58;100.00;96318.63;5089256;27;105750;-76
2023/09/16 04:09:02;;;;;;;14.70;13.20;;;;;;;14.54;100.00;96317.59;5088701;27;105747;-76
2023/09/16 04:11:29;;;;;;;26.73;12.27;;;;;;;14.46;100.00;96316.31;5088863;27;101942;-76
2023/09/16 04:13:58;;;;;;;11.67;10.77;;;;;;;14.27;100.00;96317.19;5089238;27;104914;-76
2023/09/16 04:16:25;;;;;;;11.33;10.33;;;;;;;14.45;100.00;96316.59;5091987;27;103715;-76
2023/09/16 04:18:57;;;;;;;12.70;11.50;;;;;;;14.52;100.00;96314.41;5089290;27;103873;-76
2023/09/16 04:21:28;;;;;;;13.23;12.03;;;;;;;14.34;100.00;96320.38;5088652;27;105554;-76
2023/09/16 04:23:58;;;;;;;12.70;11.60;;;;;;;14.23;100.00;96314.28;5089074;27;101909;-77
2023/09/16 04:26:26;;;;;;;11.87;10.87;;;;;;;14.33;100.00;96319.56;5088832;27;105375;-77
2023/09/16 04:28:53;;;;;;;12.07;10.90;;;;;;;14.53;100.00;96327.50;5088350;27;105684;-77
2023/09/16 04:31:23;;;;;;;12.87;11.53;;;;;;;14.56;100.00;96329.63;5088918;27;102366;-76
2023/09/16 04:33:50;;;;;;;12.47;11.27;;;;;;;14.53;100.00;96324.84;5088952;27;105666;-78
2023/09/16 04:36:18;;;;;;;13.27;12.03;;;;;;;14.57;100.00;96330.41;5088263;27;105013;-78
2023/09/16 04:38:47;;;;;;;12.07;10.97;;;;;;;14.48;100.00;96327.53;5092389;27;102197;-78
2023/09/16 04:41:14;;;;;;;11.23;10.33;;;;;;;14.22;100.00;96333.28;5087095;27;105351;-78
2023/09/16 04:43:51;;;;;;;9.90;9.07;;;;;;;14.50;100.00;96333.41;5088474;27;101967;-80
2023/09/16 04:46:29;;;;;;;10.50;9.60;;;;;;;14.52;100.00;96335.81;5084822;27;105573;-79
2023/09/16 04:49:12;;;;;;;9.97;9.17;;;;;;;14.57;100.00;96335.78;5089166;27;104119;-79
2023/09/16 04:51:48;;;;;;;37.97;11.50;;;;;;;14.26;100.00;96328.97;5089666;27;101951;-81
2023/09/16 04:54:28;;;;;;;30.60;10.13;;;;;;;13.76;100.00;96335.28;5088515;27;105282;-82
2023/09/16 04:57:10;;;;;;;17.70;9.50;;;;;;;13.84;100.00;96339.28;5084578;27;105772;-82
2023/09/16 04:59:49;;;;;;;10.90;10.00;;;;;;;13.86;100.00;96332.59;5089475;27;101986;-78
2023/09/16 05:02:25;;;;;;;10.87;9.90;;;;;;;13.81;100.00;96334.47;5092548;27;104475;-78
2023/09/16 05:05:07;;;;;;;26.47;9.50;;;;;;;13.85;100.00;96335.53;5089609;27;102065;-78
2023/09/16 05:07:35;;;;;;;32.13;9.47;;;;;;;13.78;100.00;96332.31;5089368;27;105055;-78
2023/09/16 05:10:03;;;;;;;37.93;9.53;;;;;;;13.68;100.00;96335.03;5088777;27;105352;-78
2023/09/16 05:12:33;;;;;;;10.40;8.77;;;;;;;13.73;100.00;96335.03;5089468;27;101852;-76
2023/09/16 05:15:00;;;;;;;11.80;8.73;;;;;;;13.86;100.00;96335.25;5089519;27;105207;-76
2023/09/16 05:17:29;;;;;;;11.27;10.27;;;;;;;13.90;100.00;96333.63;5088682;27;105628;-75
2023/09/16 05:19:56;;;;;;;14.77;12.77;;;;;;;14.03;100.00;96329.56;5088472;27;102005;-75
2023/09/16 05:22:23;;;;;;;19.90;12.60;;;;;;;14.08;100.00;96329.56;5088455;27;105206;-76
2023/09/16 05:24:50;;;;;;;34.67;11.10;;;;;;;14.17;100.00;96330.59;5094002;27;105724;-78
2023/09/16 05:27:17;;;;;;;11.60;9.77;;;;;;;14.27;100.00;96331.38;5091711;27;105480;-77
2023/09/16 05:29:51;;;;;;;15.30;10.10;;;;;;;14.21;100.00;96329.00;5092266;27;104882;-77
2023/09/16 05:32:18;;;;;;;9.60;8.80;;;;;;;14.34;100.00;96336.44;5093202;27;101783;-77
2023/09/16 05:34:47;;;;;;;67.77;10.80;;;;;;;14.20;100.00;96330.88;5093003;27;105301;-77
2023/09/16 05:37:14;;;;;;;25.33;10.03;;;;;;;14.06;100.00;96334.38;5091069;27;105193;-77
2023/09/16 05:39:41;;;;;;;39.43;11.07;;;;;;;13.93;100.00;96329.59;5091517;27;101953;-77
2023/09/16 05:42:08;;;;;;;27.67;9.97;;;;;;;13.72;100.00;96336.88;5091446;27;105234;-77
2023/09/16 05:44:38;;;;;;;11.40;10.30;;;;;;;13.73;100.00;96343.03;5094580;27;105130;-77
2023/09/16 05:47:06;;;;;;;29.17;10.70;;;;;;;13.69;100.00;96331.28;5091497;27;105633;-77
2023/09/16 05:49:33;;;;;;;36.93;12.33;;;;;;;13.80;100.00;96340.88;5090974;27;104543;-77
2023/09/16 05:52:04;;;;;;;11.53;10.53;;;;;;;13.87;100.00;96336.03;5091877;27;101991;-77
2023/09/16 05:54:31;;;;;;;12.73;11.53;;;;;;;14.06;100.00;96345.09;5091652;27;103937;-73
2023/09/16 05:57:01;;;;;;;23.77;10.60;;;;;;;14.15;100.00;96349.59;5090784;27;103811;-74
2023/09/16 05:59:28;;;;;;;12.33;11.13;;;;;;;-141.26;100.00;62741.75;5099061;27;333457;-78
2023/09/16 06:01:57;;;;;;;12.97;11.53;;;;;;;-141.26;100.00;62741.75;5186392;27;20242;-77
2023/09/16 06:04:26;;;;;;;23.33;14.23;;;;;;;-141.26;100.00;62741.75;5186238;27;20302;-79
2023/09/16 06:06:53;;;;;;;15.90;14.40;;;;;;;-141.26;100.00;62741.75;5188511;27;20219;-78
2023/09/16 06:09:21;;;;;;;16.30;14.50;;;;;;;-141.26;100.00;62741.75;5187038;27;20222;-77
2023/09/16 06:11:48;;;;;;;15.07;13.00;;;;;;;-141.26;100.00;62741.75;5187159;27;20231;-77
2023/09/16 06:14:15;;;;;;;22.27;12.43;;;;;;;-141.26;100.00;62741.75;5187029;27;20232;-77
2023/09/16 06:16:43;;;;;;;15.03;11.93;;;;;;;-141.26;100.00;62741.75;5186975;27;20222;-81
2023/09/16 06:19:10;;;;;;;12.23;11.13;;;;;;;-141.26;100.00;62741.75;5186979;27;20231;-82
2023/09/16 06:21:37;;;;;;;13.07;11.30;;;;;;;-141.26;100.00;62741.75;5187102;27;20323;-78
2023/09/16 06:24:06;;;;;;;16.80;11.70;;;;;;;-141.26;100.00;62741.75;5186770;27;20217;-79
2023/09/16 06:26:35;;;;;;;17.70;12.33;;;;;;;-141.26;100.00;62741.75;5186785;27;20221;-77
2023/09/16 06:29:02;;;;;;;16.17;12.47;;;;;;;-141.26;100.00;62741.75;5186763;27;20230;-77
2023/09/16 06:31:29;;;;;;;15.47;13.77;;;;;;;-141.26;100.00;62741.75;5186969;27;20222;-78
2023/09/16 06:33:56;;;;;;;16.83;13.23;;;;;;;-141.26;100.00;62741.75;5186645;27;20245;-75
2023/09/16 06:36:23;;;;;;;17.10;15.50;;;;;;;-141.26;100.00;62741.75;5186561;27;20222;-78
2023/09/16 06:38:50;;;;;;;17.03;15.40;;;;;;;-141.26;100.00;62741.75;5186465;27;20219;-78
2023/09/16 06:41:19;;;;;;;16.57;15.07;;;;;;;-141.26;100.00;62741.75;5186365;27;20234;-78
2023/09/16 06:43:47;;;;;;;15.47;13.90;;;;;;;-141.26;100.00;62741.75;5186623;27;20218;-78
2023/09/16 06:46:19;;;;;;;16.47;14.97;;;;;;;-141.26;100.00;62741.75;5186563;27;20278;-78
2023/09/16 06:48:46;;;;;;;14.90;13.40;;;;;;;-141.26;100.00;62741.75;5186281;27;20222;-78
2023/09/16 06:51:13;;;;;;;14.97;13.47;;;;;;;-141.26;100.00;62741.75;5186275;27;20249;-78
2023/09/16 06:53:40;;;;;;;16.67;14.63;;;;;;;-141.26;100.00;62741.75;5187467;27;20220;-77
2023/09/16 06:56:07;;;;;;;15.03;13.63;;;;;;;-141.26;100.00;62741.75;5186263;27;20223;-77
2023/09/16 06:58:34;;;;;;;13.90;12.50;;;;;;;-141.26;100.00;62741.75;5186266;27;20226;-77
2023/09/16 07:01:10;;;;;;;15.17;13.87;;;;;;;-141.26;100.00;62741.75;5186135;27;20233;-77
2023/09/16 07:03:36;;;;;;;13.10;11.37;;;;;;;-141.26;100.00;62741.75;5186271;27;20214;-77
2023/09/16 07:06:04;;;;;;;14.17;12.87;;;;;;;-141.26;100.00;62741.75;5187651;27;20225;-77
2023/09/16 07:08:30;;;;;;;13.30;11.90;;;;;;;-141.26;100.00;62741.75;5186251;27;20329;-77
2023/09/16 07:10:57;;;;;;;40.90;13.80;;;;;;;-141.26;100.00;62741.75;5185936;27;20215;-77
2023/09/16 07:13:24;;;;;;;13.77;12.57;;;;;;;-141.26;100.00;62741.75;5186484;27;20241;-77
2023/09/16 07:15:54;;;;;;;16.30;12.80;;;;;;;-141.26;100.00;62741.75;5186064;27;20219;-77
2023/09/16 07:18:23;;;;;;;14.00;12.70;;;;;;;-141.26;100.00;62741.75;5186039;27;20214;-77
2023/09/16 07:20:50;;;;;;;13.93;12.67;;;;;;;-141.26;100.00;62741.75;5185998;27;20215;-77
2023/09/16 07:23:17;;;;;;;28.50;13.73;;;;;;;-141.26;100.00;62741.75;5186013;27;20218;-77
2023/09/16 07:25:52;;;;;;;16.50;12.87;;;;;;;-141.26;100.00;62741.75;5185826;27;20227;-77
2023/09/16 07:28:19;;;;;;;15.07;13.47;;;;;;;-141.26;100.00;62741.75;5185710;27;20233;-77
2023/09/16 07:30:46;;;;;;;16.20;13.40;;;;;;;-141.26;100.00;62741.75;5187195;27;20309;-77
2023/09/16 07:33:13;;;;;;;15.30;13.67;;;;;;;-141.26;100.00;62741.75;5185710;27;20215;-77
2023/09/16 07:35:41;;;;;;;15.07;13.63;;;;;;;-141.26;100.00;62741.75;5185533;27;20219;-77
2023/09/16 07:38:08;;;;;;;15.00;13.60;;;;;;;-141.26;100.00;62741.75;5183349;27;20218;-77
2023/09/16 07:40:37;;;;;;;15.70;14.13;;;;;;;-141.26;100.00;62741.75;5164259;27;20238;-77
2023/09/16 07:43:06;;;;;;;14.47;13.17;;;;;;;-141.26;100.00;62741.75;5164616;27;20227;-77
2023/09/16 07:45:33;;;;;;;15.67;14.17;;;;;;;-141.26;100.00;62741.75;5164188;27;20218;-77
2023/09/16 07:48:00;;;;;;;13.27;12.03;;;;;;;-141.26;100.00;62741.75;5163770;27;20219;-77
2023/09/16 07:50:27;;;;;;;13.87;12.60;;;;;;;-141.26;100.00;62741.75;5164432;27;20223;-77
2023/09/16 07:52:55;;;;;;;13.27;12.07;;;;;;;-141.26;100.00;62741.75;5163744;27;20227;-77
2023/09/16 07:55:22;;;;;;;15.17;12.13;;;;;;;-141.26;100.00;62741.75;5163958;27;20211;-77
2023/09/16 07:57:49;;;;;;;13.73;12.40;;;;;;;-141.26;100.00;62741.75;5163634;27;20213;-77
2023/09/16 08:00:16;;;;;;;13.27;12.17;;;;;;;-141.26;100.00;62741.75;5163407;27;20567;-77
2023/09/16 08:02:43;;;;;;;13.80;12.50;;;;;;;-141.26;100.00;62741.75;5163506;27;20223;-78
2023/09/16 08:05:10;;;;;;;11.23;10.13;;;;;;;-141.26;100.00;62741.75;5163584;27;20227;-78
2023/09/16 08:07:37;;;;;;;12.40;11.40;;;;;;;-141.26;100.00;62741.75;5163170;27;20261;-78
2023/09/16 08:10:06;;;;;;;12.73;11.63;;;;;;;-141.26;100.00;62741.75;5163301;27;20220;-77
2023/09/16 08:12:33;;;;;;;12.83;11.73;;;;;;;-141.26;100.00;62741.75;5163435;27;20231;-77
2023/09/16 08:15:01;;;;;;;12.80;11.70;;;;;;;-141.26;100.00;62741.75;5163205;27;20330;-77
2023/09/16 08:17:28;;;;;;;12.20;11.07;;;;;;;-141.26;100.00;62741.75;5163257;27;20309;-77
2023/09/16 08:19:55;;;;;;;12.60;11.40;;;;;;;-141.26;100.00;62741.75;5163430;27;20237;-77
2023/09/16 08:22:22;;;;;;;13.43;12.23;;;;;;;-141.26;100.00;62741.75;5163062;27;20309;-77
2023/09/16 08:24:50;;;;;;;14.40;13.00;;;;;;;-141.26;100.00;62741.75;5163089;27;20219;-77
2023/09/16 08:27:20;;;;;;;14.77;13.47;;;;;;;-141.26;100.00;62741.75;5163203;27;20222;-77
2023/09/16 08:29:49;;;;;;;14.30;12.90;;;;;;;-141.26;100.00;62741.75;5163248;27;20333;-77
2023/09/16 08:32:16;;;;;;;14.47;13.07;;;;;;;-141.26;100.00;62741.75;5163142;27;20266;-77
2023/09/16 08:34:43;;;;;;;15.73;14.23;;;;;;;-141.26;100.00;62741.75;5163122;27;20215;-77
2023/09/16 08:37:11;;;;;;;13.80;12.40;;;;;;;-141.26;100.00;62741.75;5163534;27;20227;-77
2023/09/16 08:39:38;;;;;;;12.40;11.27;;;;;;;-141.26;100.00;62741.75;5163792;27;20215;-77
2023/09/16 08:42:12;;;;;;;13.70;12.50;;;;;;;-141.26;100.00;62741.75;5163194;27;20231;-77
2023/09/16 08:44:44;;;;;;;12.63;11.47;;;;;;;-141.26;100.00;62741.75;5165238;27;20211;-78
2023/09/16 08:47:28;;;;;;;10.97;9.87;;;;;;;-141.26;100.00;62741.75;5163760;27;20218;-77
2023/09/16 08:50:04;;;;;;;11.43;10.43;;;;;;;-141.26;100.00;62741.75;5163477;27;20219;-77
2023/09/16 08:52:38;;;;;;;11.50;10.30;;;;;;;-141.26;100.00;62741.75;5162510;27;20254;-77
2023/09/16 08:55:11;;;;;;;9.00;8.20;;;;;;;-141.26;100.00;62741.75;5162985;27;20252;-77
2023/09/16 08:57:39;;;;;;;8.90;8.10;;;;;;;-141.26;100.00;62741.75;5163859;27;20230;-77
2023/09/16 09:00:09;;;;;;;8.87;8.03;;;;;;;-141.26;100.00;62741.75;5166553;27;20227;-77
2023/09/16 09:02:37;;;;;;;8.63;7.93;;;;;;;-141.26;100.00;62741.75;5166560;27;20230;-77
2023/09/16 09:05:06;;;;;;;7.70;7.10;;;;;;;-141.26;100.00;62741.75;5166572;27;20219;-77
2023/09/16 09:07:36;;;;;;;8.33;7.63;;;;;;;-141.26;100.00;62741.75;5166293;27;20264;-77
2023/09/16 09:10:04;;;;;;;8.10;7.50;;;;;;;-141.26;100.00;62741.75;5166200;27;20219;-77
2023/09/16 09:12:34;;;;;;;7.90;7.30;;;;;;;-141.26;100.00;62741.75;5166063;27;20226;-77
2023/09/16 09:15:04;;;;;;;8.50;7.70;;;;;;;-141.26;100.00;62741.75;5166353;27;20220;-77
2023/09/16 09:17:38;;;;;;;7.53;6.93;;;;;;;-141.26;100.00;62741.75;5166227;27;20276;-77
2023/09/16 09:20:09;;;;;;;6.87;6.17;;;;;;;-141.26;100.00;62741.75;5166035;27;20227;-77
2023/09/16 09:22:38;;;;;;;7.37;6.00;;;;;;;-141.26;100.00;62741.75;5166045;27;20223;-77
2023/09/16 09:25:06;;;;;;;6.27;5.77;;;;;;;-141.26;100.00;62741.75;5149026;27;20276;-77
2023/09/16 09:27:33;;;;;;;7.00;6.50;;;;;;;-141.26;100.00;62741.75;5166124;27;20219;-77
2023/09/16 09:30:00;;;;;;;7.10;6.50;;;;;;;-141.26;100.00;62741.75;5165794;27;20223;-77
2023/09/16 09:32:31;;;;;;;6.63;6.03;;;;;;;-141.26;100.00;62741.75;5166098;27;20515;-77
2023/09/16 09:34:59;;;;;;;6.47;5.17;;;;;;;-141.26;100.00;62741.75;5165928;27;20207;-77
2023/09/16 09:37:26;;;;;;;5.23;4.83;;;;;;;-141.26;100.00;62741.75;5165816;27;20223;-77
2023/09/16 09:40:06;;;;;;;4.67;4.37;;;;;;;-141.26;100.00;62741.75;5165744;27;20230;-77
2023/09/16 09:42:33;;;;;;;5.13;4.73;;;;;;;-141.26;100.00;62741.75;5167476;27;20203;-78
2023/09/16 09:45:02;;;;;;;5.07;4.67;;;;;;;-141.26;100.00;62741.75;5165859;27;20223;-78
2023/09/16 09:47:30;;;;;;;5.23;4.80;;;;;;;-141.26;100.00;62741.75;5165848;27;20268;-78
2023/09/16 09:49:59;;;;;;;5.17;4.73;;;;;;;-141.26;100.00;62741.75;5165559;27;20228;-78
2023/09/16 09:52:26;;;;;;;4.40;4.00;;;;;;;-141.26;100.00;62741.75;5165652;27;20219;-77
2023/09/16 09:54:55;;;;;;;5.10;4.60;;;;;;;-141.26;100.00;62741.75;5165891;27;20226;-77
2023/09/16 09:57:22;;;;;;;4.80;4.40;;;;;;;-141.26;100.00;62741.75;5165659;27;20215;-77
2023/09/16 09:59:49;;;;;;;5.37;4.97;;;;;;;-141.26;100.00;62741.75;5165642;27;20226;-77
2023/09/16 10:02:17;;;;;;;5.10;4.70;;;;;;;-141.26;100.00;62741.75;5165565;27;20238;-77
2023/09/16 10:04:43;;;;;;;4.27;3.97;;;;;;;-141.26;100.00;62741.75;5165342;27;20224;-77
2023/09/16 10:07:12;;;;;;;4.40;4.00;;;;;;;-141.26;100.00;62741.75;5165425;27;20227;-77
2023/09/16 10:09:43;;;;;;;4.80;4.40;;;;;;;-141.26;100.00;62741.75;5164418;27;20261;-77
2023/09/16 10:12:12;;;;;;;4.50;4.20;;;;;;;-141.26;100.00;62741.75;5165455;27;20226;-77
2023/09/16 10:14:39;;;;;;;4.50;4.10;;;;;;;-141.26;100.00;62741.75;5165217;27;20296;-77
2023/09/16 10:17:06;;;;;;;3.90;3.60;;;;;;;-141.26;100.00;62741.75;5165215;27;20219;-77
2023/09/16 10:19:33;;;;;;;4.60;4.20;;;;;;;-141.26;100.00;62741.75;5165322;27;20230;-77
2023/09/16 10:22:00;;;;;;;4.37;4.07;;;;;;;-141.26;100.00;62741.75;5165212;27;20211;-77
2023/09/16 10:24:29;;;;;;;3.90;3.60;;;;;;;-141.26;100.00;62741.75;5165341;27;20207;-77
2023/09/16 10:27:02;;;;;;;3.90;3.67;;;;;;;-141.26;100.00;62741.75;5165018;27;20223;-77
2023/09/16 10:29:31;;;;;;;4.40;3.50;;;;;;;-141.26;100.00;62741.75;5165139;27;20226;-77
2023/09/16 10:31:59;;;;;;;4.00;3.70;;;;;;;-141.26;100.00;62741.75;5165121;27;20211;-77
2023/09/16 10:34:26;;;;;;;3.50;3.20;;;;;;;-141.26;100.00;62741.75;5164949;27;20223;-77
2023/09/16 10:36:53;;;;;;;4.00;3.47;;;;;;;-141.26;100.00;62741.75;5164912;27;20215;-77
2023/09/16 10:39:22;;;;;;;4.40;3.93;;;;;;;-141.26;100.00;62741.75;5165077;27;20220;-77
2023/09/16 10:41:52;;;;;;;3.73;3.50;;;;;;;-141.26;100.00;62741.75;5164590;27;20242;-77
2023/09/16 10:44:19;;;;;;;3.90;3.43;;;;;;;-141.26;100.00;62741.75;5166160;27;20204;-77
2023/09/16 10:46:47;;;;;;;3.53;3.33;;;;;;;-141.26;100.00;62741.75;5164731;27;20230;-77
2023/09/16 10:49:14;;;;;;;3.80;3.47;;;;;;;-141.26;100.00;62741.75;5164809;27;20230;-77
2023/09/16 10:51:43;;;;;;;4.07;3.60;;;;;;;-141.26;100.00;62741.75;5164689;27;20223;-77
2023/09/16 10:54:18;;;;;;;3.77;3.33;;;;;;;-141.26;100.00;62741.75;5165918;27;20264;-77
2023/09/16 10:56:45;;;;;;;3.63;3.37;;;;;;;-141.26;100.00;62741.75;5164715;27;20314;-77
2023/09/16 10:59:17;;;;;;;3.70;3.40;;;;;;;-141.26;100.00;62741.75;5166130;27;20215;-77
2023/09/16 11:01:48;;;;;;;3.40;3.10;;;;;;;-141.26;100.00;62741.75;5164562;27;20211;-77
2023/09/16 11:04:17;;;;;;;4.17;3.80;;;;;;;-141.26;100.00;62741.75;5164598;27;20216;-77
2023/09/16 11:06:47;;;;;;;3.60;3.30;;;;;;;-141.26;100.00;62741.75;5164493;27;20246;-77
2023/09/16 11:09:17;;;;;;;5.23;3.60;;;;;;;-141.26;100.00;62741.75;5164504;27;20223;-78
2023/09/16 11:11:45;;;;;;;3.97;3.67;;;;;;;-141.26;100.00;62741.75;5164464;27;20225;-78